createdAt,value
2019-03-28T00:00:30.687Z,10.3
2019-03-28T00:02:44.441Z,10.6
2019-03-28T00:04:58.194Z,11
2019-03-28T00:07:12.001Z,10.3
2019-03-28T00:09:25.794Z,10.2
2019-03-28T00:11:39.556Z,10.5
2019-03-28T00:13:53.371Z,10.1
2019-03-28T00:16:07.122Z,10.7
2019-03-28T00:18:20.938Z,10.4
2019-03-28T00:20:35.323Z,11.1
2019-03-28T00:22:48.493Z,11.1
2019-03-28T00:25:02.245Z,11.1
2019-03-28T00:27:16.035Z,10.5
2019-03-28T00:29:29.835Z,10.5
2019-03-28T00:31:43.600Z,10.8
2019-03-28T00:33:57.391Z,10.8
2019-03-28T00:36:11.148Z,10.2
2019-03-28T00:38:25.189Z,10.6
2019-03-28T00:40:38.719Z,10.6
2019-03-28T00:42:52.451Z,11
2019-03-28T00:45:06.280Z,10.1
2019-03-28T00:47:20.023Z,10.4
2019-03-28T00:49:33.776Z,9.7
2019-03-28T00:51:47.509Z,9.5
2019-03-28T00:54:01.319Z,9.8
2019-03-28T00:56:15.057Z,10.6
2019-03-28T00:58:28.843Z,9.2
2019-03-28T01:00:42.610Z,9.9
2019-03-28T01:02:56.337Z,9.9
2019-03-28T01:05:10.142Z,9.4
2019-03-28T01:07:23.926Z,10.6
2019-03-28T01:09:37.684Z,9.4
2019-03-28T01:11:51.440Z,9.8
2019-03-28T01:14:05.248Z,9.4
2019-03-28T01:16:18.974Z,9.5
2019-03-28T01:18:32.759Z,9.2
2019-03-28T01:20:46.542Z,9.4
2019-03-28T01:23:00.312Z,10
2019-03-28T01:25:14.081Z,8.8
2019-03-28T01:27:27.870Z,9.4
2019-03-28T01:29:41.636Z,9.8
2019-03-28T01:31:55.413Z,9.8
2019-03-28T01:34:09.195Z,9.7
2019-03-28T01:36:22.944Z,9.4
2019-03-28T01:38:36.728Z,9.8
2019-03-28T01:40:51.070Z,9.5
2019-03-28T01:43:04.266Z,9.9
2019-03-28T01:45:18.041Z,10.6
2019-03-28T01:47:31.831Z,10.2
2019-03-28T01:49:45.578Z,10.7
2019-03-28T01:51:59.339Z,10.8
2019-03-28T01:54:14.151Z,10.8
2019-03-28T01:56:27.875Z,10.7
2019-03-28T01:58:41.633Z,9.8
2019-03-28T02:00:55.420Z,9.2
2019-03-28T02:03:10.174Z,9.8
2019-03-28T02:05:23.958Z,9.5
2019-03-28T02:07:37.740Z,10
2019-03-28T02:09:51.515Z,9.8
2019-03-28T02:12:05.634Z,9.4
2019-03-28T02:14:19.076Z,9.8
2019-03-28T02:16:32.854Z,10.1
2019-03-28T02:18:46.622Z,9.3
2019-03-28T02:21:01.250Z,9.5
2019-03-28T02:23:14.141Z,9.6
2019-03-28T02:25:27.907Z,8.6
2019-03-28T02:27:41.677Z,10.1
2019-03-28T02:29:55.424Z,9.7
2019-03-28T02:32:09.248Z,9.2
2019-03-28T02:34:23.013Z,9.3
2019-03-28T02:36:36.766Z,9.4
2019-03-28T02:38:50.500Z,9.8
2019-03-28T02:41:04.316Z,9.8
2019-03-28T02:43:19.833Z,10.2
2019-03-28T02:45:32.806Z,9.2
2019-03-28T02:47:46.609Z,9.2
2019-03-28T02:50:00.486Z,9.7
2019-03-28T02:52:14.156Z,9.1
2019-03-28T02:54:27.953Z,9
2019-03-28T02:56:42.122Z,9.3
2019-03-28T02:58:55.463Z,9.7
2019-03-28T03:01:09.291Z,9.8
2019-03-28T03:03:24.013Z,9.3
2019-03-28T03:05:37.764Z,9.6
2019-03-28T03:07:51.580Z,9.9
2019-03-28T03:10:05.311Z,9.6
2019-03-28T03:12:19.091Z,9.6
2019-03-28T03:14:32.874Z,9.7
2019-03-28T03:16:46.633Z,10
2019-03-28T03:19:00.392Z,9.9
2019-03-28T03:21:14.358Z,10.7
2019-03-28T03:23:28.128Z,10.8
2019-03-28T03:25:41.889Z,10.2
2019-03-28T03:27:59.074Z,10.7
2019-03-28T03:30:10.360Z,9.6
2019-03-28T03:32:24.144Z,10
2019-03-28T03:34:37.972Z,10.3
2019-03-28T03:36:51.740Z,10.7
2019-03-28T03:39:05.517Z,9.6
2019-03-28T03:41:19.389Z,10.1
2019-03-28T03:43:33.051Z,10.1
2019-03-28T03:45:46.808Z,10.1
2019-03-28T03:48:00.590Z,10
2019-03-28T03:50:14.349Z,10
2019-03-28T03:52:28.119Z,10.1
2019-03-28T03:54:41.898Z,9.8
2019-03-28T03:56:55.625Z,9.7
2019-03-28T03:59:09.391Z,10.2
2019-03-28T04:01:23.175Z,10.1
2019-03-28T04:03:36.927Z,10.4
2019-03-28T04:05:50.674Z,10.2
2019-03-28T04:08:04.474Z,9.6
2019-03-28T04:10:18.217Z,10.7
2019-03-28T04:12:32.026Z,10.5
2019-03-28T04:14:45.835Z,11
2019-03-28T04:16:59.575Z,12.2
2019-03-28T04:19:13.350Z,12.1
2019-03-28T04:21:27.142Z,11.8
2019-03-28T04:23:40.906Z,11.7
2019-03-28T04:25:54.693Z,12.1
2019-03-28T04:28:08.507Z,12.8
2019-03-28T04:30:22.755Z,12.7
2019-03-28T04:32:35.994Z,12.1
2019-03-28T04:34:49.825Z,11.5
2019-03-28T04:37:03.564Z,12.2
2019-03-28T04:39:17.383Z,12.3
2019-03-28T04:41:31.176Z,12.7
2019-03-28T04:43:44.934Z,12.7
2019-03-28T04:45:58.675Z,13.3
2019-03-28T04:48:12.542Z,12.5
2019-03-28T04:50:26.292Z,12.6
2019-03-28T04:52:40.034Z,12.5
2019-03-28T04:54:53.823Z,12.2
2019-03-28T04:57:07.561Z,12
2019-03-28T04:59:21.335Z,11.8
2019-03-28T05:01:35.134Z,11.6
2019-03-28T05:03:49.360Z,11.4
2019-03-28T05:06:02.722Z,11
2019-03-28T05:08:16.489Z,11.2
2019-03-28T05:10:32.993Z,10.8
2019-03-28T05:12:43.996Z,10.4
2019-03-28T05:14:57.813Z,10.4
2019-03-28T05:17:11.588Z,9.8
2019-03-28T05:19:25.326Z,10.1
2019-03-28T05:21:40.118Z,10.6
2019-03-28T05:23:53.920Z,9.9
2019-03-28T05:26:07.685Z,11.1
2019-03-28T05:28:21.466Z,11
2019-03-28T05:30:35.241Z,10.8
2019-03-28T05:32:49.009Z,11.4
2019-03-28T05:35:02.804Z,10.8
2019-03-28T05:37:16.537Z,11.5
2019-03-28T05:39:30.306Z,11.2
2019-03-28T05:41:44.097Z,11.2
2019-03-28T05:43:57.893Z,12.1
2019-03-28T05:46:11.688Z,11.7
2019-03-28T05:48:25.483Z,11.9
2019-03-28T05:50:39.241Z,11
2019-03-28T05:52:53.019Z,12.3
2019-03-28T05:55:06.812Z,11.5
2019-03-28T05:57:20.579Z,11.9
2019-03-28T05:59:34.357Z,11.4
2019-03-28T06:01:48.162Z,11.4
2019-03-28T06:04:01.941Z,11
2019-03-28T06:06:15.709Z,11.3
2019-03-28T06:08:29.478Z,12.6
2019-03-28T06:10:43.236Z,11.5
2019-03-28T06:12:56.988Z,11.8
2019-03-28T06:15:10.800Z,11.7
2019-03-28T06:17:24.551Z,11.7
2019-03-28T06:19:38.422Z,12.2
2019-03-28T06:21:52.106Z,12.3
2019-03-28T06:24:05.858Z,11.8
2019-03-28T06:26:19.665Z,11.9
2019-03-28T06:28:33.487Z,11.8
2019-03-28T06:30:47.278Z,12.3
2019-03-28T06:33:01.086Z,12
2019-03-28T06:35:14.933Z,13.8
2019-03-28T06:37:29.712Z,12.2
2019-03-28T06:39:43.500Z,12.6
2019-03-28T06:41:57.528Z,13
2019-03-28T06:44:11.367Z,12.6
2019-03-28T06:46:25.198Z,12
2019-03-28T06:48:39.312Z,12.8
2019-03-28T06:50:53.197Z,13
2019-03-28T06:53:07.029Z,12.6
2019-03-28T06:55:23.873Z,11.6
2019-03-28T06:57:34.818Z,12.3
2019-03-28T06:59:48.680Z,13.2
2019-03-28T07:02:02.707Z,13.1
2019-03-28T07:04:16.539Z,14
2019-03-28T07:06:30.386Z,14.3
2019-03-28T07:08:44.224Z,14.1
2019-03-28T07:10:58.314Z,14
2019-03-28T07:13:11.879Z,13.2
2019-03-28T07:15:25.698Z,14.5
2019-03-28T07:17:39.603Z,13.2
2019-03-28T07:19:53.434Z,10.8
2019-03-28T07:22:07.276Z,11.3
2019-03-28T07:24:21.119Z,11
2019-03-28T07:26:34.937Z,10.8
2019-03-28T07:28:48.796Z,11.7
2019-03-28T07:31:03.639Z,11.7
2019-03-28T07:33:17.469Z,11.7
2019-03-28T07:35:31.336Z,11.2
2019-03-28T07:37:45.514Z,12.8
2019-03-28T07:39:59.363Z,12.4
2019-03-28T07:42:13.184Z,12.3
2019-03-28T07:44:27.156Z,13.2
2019-03-28T07:46:41.029Z,12.1
2019-03-28T07:48:55.807Z,12.3
2019-03-28T07:51:09.864Z,14.4
2019-03-28T07:53:24.700Z,13.7
2019-03-28T07:55:38.530Z,14.4
2019-03-28T07:57:52.455Z,14.8
2019-03-28T08:00:06.251Z,14.2
2019-03-28T08:02:20.087Z,15.4
2019-03-28T08:04:34.004Z,14.6
2019-03-28T08:06:49.872Z,13.7
2019-03-28T08:09:01.637Z,14.3
2019-03-28T08:11:15.712Z,14.8
2019-03-28T08:13:29.565Z,12.8
2019-03-28T08:15:43.478Z,13.1
2019-03-28T08:17:57.633Z,13.9
2019-03-28T08:20:11.447Z,15
2019-03-28T08:22:25.171Z,14.2
2019-03-28T08:24:38.889Z,12.2
2019-03-28T08:27:12.456Z,13.9
2019-03-28T08:29:26.916Z,15
2019-03-28T08:31:40.954Z,15.2
2019-03-28T08:33:54.682Z,15.2
2019-03-28T08:36:09.554Z,18
2019-03-28T08:38:23.661Z,16.6
2019-03-28T08:40:39.555Z,16.5
2019-03-28T08:42:51.449Z,16.5
2019-03-28T08:45:05.635Z,17.299999
2019-03-28T08:47:19.562Z,17
2019-03-28T08:49:33.421Z,16.9
2019-03-28T08:51:47.288Z,16.6
2019-03-28T08:54:01.419Z,15.9
2019-03-28T08:56:16.270Z,15.8
2019-03-28T08:58:30.137Z,15.5
2019-03-28T09:00:51.897Z,15.2
2019-03-28T09:02:59.915Z,15.2
2019-03-28T09:05:13.792Z,14.6
2019-03-28T09:07:27.646Z,15.1
2019-03-28T09:09:42.031Z,14.5
2019-03-28T09:11:55.877Z,14.7
2019-03-28T09:14:09.775Z,13.3
2019-03-28T09:16:24.036Z,14.3
2019-03-28T09:18:39.239Z,13.9
2019-03-28T09:20:53.131Z,13.4
2019-03-28T09:23:07.122Z,14.3
2019-03-28T09:25:21.054Z,15
2019-03-28T09:27:34.908Z,13.4
2019-03-28T09:29:48.759Z,14
2019-03-28T09:32:02.947Z,12.9
2019-03-28T09:34:16.829Z,13.4
2019-03-28T09:36:30.677Z,13.2
2019-03-28T09:38:44.538Z,12.3
2019-03-28T09:40:58.362Z,12.6
2019-03-28T09:43:12.250Z,10.8
2019-03-28T09:45:26.174Z,11.7
2019-03-28T09:47:40.038Z,10.4
2019-03-28T09:49:53.860Z,9.6
2019-03-28T09:52:07.771Z,10
2019-03-28T09:54:21.553Z,10.1
2019-03-28T09:56:35.347Z,10
2019-03-28T09:58:49.221Z,9.9
2019-03-28T10:01:03.507Z,10.4
2019-03-28T10:03:16.785Z,10.1
2019-03-28T10:05:30.609Z,10.3
2019-03-28T10:07:45.433Z,10.7
2019-03-28T10:09:59.658Z,10.6
2019-03-28T10:12:13.224Z,10.7
2019-03-28T10:14:27.128Z,10.3
2019-03-28T10:16:40.980Z,9.7
2019-03-28T10:18:55.044Z,9.5
2019-03-28T10:21:08.908Z,8.9
2019-03-28T10:23:22.781Z,8.4
2019-03-28T10:25:36.676Z,7.5
2019-03-28T10:27:50.583Z,7.2
2019-03-28T10:30:04.412Z,7
2019-03-28T10:32:18.330Z,8.2
2019-03-28T10:34:32.223Z,8.6
2019-03-28T10:36:46.037Z,7.1
2019-03-28T10:39:00.010Z,7.1
2019-03-28T10:41:13.922Z,7.2
2019-03-28T10:43:27.846Z,6.2
2019-03-28T10:45:41.796Z,6.2
2019-03-28T10:47:55.738Z,5.8
2019-03-28T10:50:09.722Z,6.6
2019-03-28T10:52:23.711Z,6.3
2019-03-28T10:54:37.539Z,6.3
2019-03-28T10:56:52.530Z,6.2
2019-03-28T10:59:06.820Z,6.9
2019-03-28T11:01:36.372Z,7.3
2019-03-28T11:03:37.167Z,6.6
2019-03-28T11:05:51.053Z,6.9
2019-03-28T11:08:04.971Z,7.5
2019-03-28T11:10:18.994Z,7.3
2019-03-28T11:12:33.010Z,7.5
2019-03-28T11:14:46.889Z,7.6
2019-03-28T11:17:00.858Z,8.2
2019-03-28T11:19:15.867Z,7.8
2019-03-28T11:21:28.737Z,8
2019-03-28T11:23:43.661Z,8.3
2019-03-28T11:25:57.614Z,8.2
2019-03-28T11:28:11.482Z,7.1
2019-03-28T11:30:25.738Z,8.2
2019-03-28T11:32:39.701Z,8.1
2019-03-28T11:34:54.642Z,7.9
2019-03-28T11:37:11.398Z,8.1
2019-03-28T11:39:23.547Z,8
2019-03-28T11:41:37.575Z,7.8
2019-03-28T11:43:51.525Z,8
2019-03-28T11:46:05.466Z,9.1
2019-03-28T11:48:19.460Z,9.3
2019-03-28T11:50:33.352Z,9.3
2019-03-28T11:52:47.240Z,9.3
2019-03-28T22:43:33.044Z,0
2019-03-28T22:47:21.458Z,0
2019-03-28T22:48:39.328Z,19
2019-03-28T22:49:54.131Z,22.4
2019-03-28T22:51:08.527Z,22.799999
2019-03-28T22:52:22.916Z,24.299999
2019-03-28T22:53:37.173Z,24.1
2019-03-28T22:54:51.538Z,24.299999
2019-03-28T22:56:05.821Z,24.5
2019-03-28T22:57:25.109Z,25.6
